sensor_id;sensor_type;location;lat;lon;timestamp;pressure;altitude;pressure_sealevel;temperature;humidity
5595;BME280;1003;48.002;7.788;2023-05-29T00:01:54;98279.25;;;12.75;100.00
5595;BME280;1003;48.002;7.788;2023-05-29T00:04:21;98276.06;;;12.70;100.00
5595;BME280;1003;48.002;7.788;2023-05-29T00:06:48;98281.94;;;12.69;100.00
5595;BME280;1003;48.002;7.788;2023-05-29T00:09:16;98278.56;;;12.70;100.00
5595;BME280;1003;48.002;7.788;2023-05-29T00:11:45;98263.53;;;12.67;100.00
5595;BME280;1003;48.002;7.788;2023-05-29T00:14:16;98255.03;;;12.70;100.00
5595;BME280;1003;48.002;7.788;2023-05-29T00:16:45;98244.94;;;12.70;100.00
5595;BME280;1003;48.002;7.788;2023-05-29T00:19:12;98236.47;;;12.72;100.00
5595;BME280;1003;48.002;7.788;2023-05-29T00:21:42;98238.06;;;12.75;100.00
5595;BME280;1003;48.002;7.788;2023-05-29T00:24:09;98232.25;;;12.73;100.00
5595;BME280;1003;48.002;7.788;2023-05-29T00:26:36;98224.69;;;12.73;100.00
5595;BME280;1003;48.002;7.788;2023-05-29T00:29:05;98212.00;;;12.76;100.00
5595;BME280;1003;48.002;7.788;2023-05-29T00:31:32;98203.41;;;12.80;100.00
5595;BME280;1003;48.002;7.788;2023-05-29T00:33:59;98199.97;;;12.82;100.00
5595;BME280;1003;48.002;7.788;2023-05-29T00:36:26;98199.09;;;12.83;100.00
5595;BME280;1003;48.002;7.788;2023-05-29T00:38:54;98195.91;;;12.78;100.00
5595;BME280;1003;48.002;7.788;2023-05-29T00:41:21;98199.31;;;12.77;100.00
5595;BME280;1003;48.002;7.788;2023-05-29T00:43:48;98196.97;;;12.73;100.00
5595;BME280;1003;48.002;7.788;2023-05-29T00:46:17;98187.03;;;12.68;100.00
5595;BME280;1003;48.002;7.788;2023-05-29T00:48:47;98193.81;;;12.66;100.00
5595;BME280;1003;48.002;7.788;2023-05-29T00:51:15;98192.28;;;12.62;100.00
5595;BME280;1003;48.002;7.788;2023-05-29T00:53:44;98198.13;;;12.63;100.00
5595;BME280;1003;48.002;7.788;2023-05-29T00:56:13;98203.69;;;12.72;100.00
5595;BME280;1003;48.002;7.788;2023-05-29T00:58:41;98205.41;;;12.72;100.00
5595;BME280;1003;48.002;7.788;2023-05-29T01:01:08;98202.88;;;12.72;100.00
5595;BME280;1003;48.002;7.788;2023-05-29T01:03:38;98207.19;;;12.68;100.00
5595;BME280;1003;48.002;7.788;2023-05-29T01:06:07;98213.03;;;12.70;100.00
5595;BME280;1003;48.002;7.788;2023-05-29T01:08:36;98218.06;;;12.70;100.00
5595;BME280;1003;48.002;7.788;2023-05-29T01:11:24;98215.53;;;12.70;100.00
5595;BME280;1003;48.002;7.788;2023-05-29T01:13:59;98232.47;;;12.67;100.00
5595;BME280;1003;48.002;7.788;2023-05-29T01:16:47;98229.13;;;12.66;100.00
5595;BME280;1003;48.002;7.788;2023-05-29T01:19:40;98228.41;;;12.63;100.00
5595;BME280;1003;48.002;7.788;2023-05-29T01:22:22;98236.91;;;12.60;100.00
5595;BME280;1003;48.002;7.788;2023-05-29T01:25:01;98234.22;;;12.65;100.00
5595;BME280;1003;48.002;7.788;2023-05-29T01:27:36;98233.94;;;12.47;100.00
5595;BME280;1003;48.002;7.788;2023-05-29T01:30:07;98244.69;;;12.27;100.00
5595;BME280;1003;48.002;7.788;2023-05-29T01:32:37;98244.16;;;12.18;100.00
5595;BME280;1003;48.002;7.788;2023-05-29T01:35:06;98248.09;;;11.98;100.00
5595;BME280;1003;48.002;7.788;2023-05-29T01:37:33;98245.72;;;11.94;100.00
5595;BME280;1003;48.002;7.788;2023-05-29T01:40:01;98265.97;;;11.91;100.00
5595;BME280;1003;48.002;7.788;2023-05-29T01:42:30;98273.78;;;11.81;100.00
5595;BME280;1003;48.002;7.788;2023-05-29T01:44:59;98275.78;;;11.70;100.00
5595;BME280;1003;48.002;7.788;2023-05-29T01:47:29;98299.38;;;11.66;100.00
5595;BME280;1003;48.002;7.788;2023-05-29T01:49:57;98302.84;;;11.62;100.00
5595;BME280;1003;48.002;7.788;2023-05-29T01:52:25;98313.81;;;11.60;100.00
5595;BME280;1003;48.002;7.788;2023-05-29T01:54:52;98322.13;;;11.63;100.00
5595;BME280;1003;48.002;7.788;2023-05-29T01:57:20;98325.50;;;11.62;100.00
5595;BME280;1003;48.002;7.788;2023-05-29T01:59:48;98321.31;;;11.61;100.00
5595;BME280;1003;48.002;7.788;2023-05-29T02:02:17;98316.97;;;11.68;100.00
5595;BME280;1003;48.002;7.788;2023-05-29T02:04:44;98324.53;;;11.68;100.00
5595;BME280;1003;48.002;7.788;2023-05-29T02:07:11;98324.97;;;11.80;100.00
5595;BME280;1003;48.002;7.788;2023-05-29T02:09:38;98332.25;;;11.91;100.00
5595;BME280;1003;48.002;7.788;2023-05-29T02:12:06;98312.19;;;11.88;100.00
5595;BME280;1003;48.002;7.788;2023-05-29T02:14:33;98311.41;;;11.86;100.00
5595;BME280;1003;48.002;7.788;2023-05-29T02:17:00;98315.00;;;11.77;100.00
5595;BME280;1003;48.002;7.788;2023-05-29T02:19:30;98312.75;;;11.68;100.00
5595;BME280;1003;48.002;7.788;2023-05-29T02:21:57;98331.44;;;11.60;100.00
5595;BME280;1003;48.002;7.788;2023-05-29T02:24:24;98342.47;;;11.55;100.00
5595;BME280;1003;48.002;7.788;2023-05-29T02:26:51;98356.78;;;11.53;100.00
5595;BME280;1003;48.002;7.788;2023-05-29T02:29:18;98376.13;;;11.51;100.00
5595;BME280;1003;48.002;7.788;2023-05-29T02:31:45;98391.09;;;11.56;100.00
5595;BME280;1003;48.002;7.788;2023-05-29T02:34:12;98409.75;;;11.49;100.00
5595;BME280;1003;48.002;7.788;2023-05-29T02:36:40;98429.09;;;11.47;100.00
5595;BME280;1003;48.002;7.788;2023-05-29T02:39:07;98443.44;;;11.43;100.00
5595;BME280;1003;48.002;7.788;2023-05-29T02:41:34;98451.00;;;11.43;100.00
5595;BME280;1003;48.002;7.788;2023-05-29T02:44:01;98462.81;;;11.40;100.00
5595;BME280;1003;48.002;7.788;2023-05-29T02:46:28;98469.63;;;11.36;100.00
5595;BME280;1003;48.002;7.788;2023-05-29T02:48:55;98487.31;;;11.33;100.00
5595;BME280;1003;48.002;7.788;2023-05-29T02:51:23;98514.09;;;11.36;100.00
5595;BME280;1003;48.002;7.788;2023-05-29T02:53:51;98553.53;;;11.34;100.00
5595;BME280;1003;48.002;7.788;2023-05-29T02:56:18;98593.06;;;11.28;100.00
5595;BME280;1003;48.002;7.788;2023-05-29T02:58:49;98626.88;;;11.17;100.00
5595;BME280;1003;48.002;7.788;2023-05-29T03:01:16;98650.50;;;11.10;100.00
5595;BME280;1003;48.002;7.788;2023-05-29T03:03:43;98672.34;;;11.06;100.00
5595;BME280;1003;48.002;7.788;2023-05-29T03:06:11;98689.13;;;11.06;100.00
5595;BME280;1003;48.002;7.788;2023-05-29T03:08:39;98701.63;;;11.10;100.00
5595;BME280;1003;48.002;7.788;2023-05-29T03:11:08;98725.13;;;11.09;100.00
5595;BME280;1003;48.002;7.788;2023-05-29T03:13:36;98726.91;;;11.02;100.00
5595;BME280;1003;48.002;7.788;2023-05-29T03:16:04;98738.72;;;10.97;100.00
5595;BME280;1003;48.002;7.788;2023-05-29T03:18:31;98723.75;;;10.93;100.00
5595;BME280;1003;48.002;7.788;2023-05-29T03:20:58;98728.84;;;10.90;100.00
5595;BME280;1003;48.002;7.788;2023-05-29T03:23:26;98750.59;;;10.91;100.00
5595;BME280;1003;48.002;7.788;2023-05-29T03:25:53;98764.03;;;10.90;100.00
5595;BME280;1003;48.002;7.788;2023-05-29T03:28:22;98782.38;;;10.95;100.00
5595;BME280;1003;48.002;7.788;2023-05-29T03:30:49;98804.22;;;10.91;100.00
5595;BME280;1003;48.002;7.788;2023-05-29T03:33:17;98822.72;;;10.89;100.00
5595;BME280;1003;48.002;7.788;2023-05-29T03:35:44;98840.38;;;10.84;100.00
5595;BME280;1003;48.002;7.788;2023-05-29T03:38:11;98863.91;;;10.80;100.00
5595;BME280;1003;48.002;7.788;2023-05-29T03:40:38;98881.75;;;10.65;100.00
5595;BME280;1003;48.002;7.788;2023-05-29T03:43:05;98921.16;;;10.63;100.00
5595;BME280;1003;48.002;7.788;2023-05-29T03:45:33;98954.69;;;10.62;100.00
5595;BME280;1003;48.002;7.788;2023-05-29T03:48:00;98976.53;;;10.57;100.00
5595;BME280;1003;48.002;7.788;2023-05-29T03:50:27;99001.56;;;10.63;100.00
5595;BME280;1003;48.002;7.788;2023-05-29T03:52:54;99019.06;;;10.70;100.00
5595;BME280;1003;48.002;7.788;2023-05-29T03:55:21;99039.13;;;10.75;100.00
5595;BME280;1003;48.002;7.788;2023-05-29T03:57:48;99039.91;;;10.78;100.00
5595;BME280;1003;48.002;7.788;2023-05-29T04:00:16;99044.06;;;10.83;100.00
5595;BME280;1003;48.002;7.788;2023-05-29T04:02:45;99049.00;;;10.89;100.00
5595;BME280;1003;48.002;7.788;2023-05-29T04:05:12;99051.47;;;10.93;100.00
5595;BME280;1003;48.002;7.788;2023-05-29T04:07:39;99056.44;;;10.98;100.00
5595;BME280;1003;48.002;7.788;2023-05-29T04:10:08;99068.09;;;11.03;100.00
5595;BME280;1003;48.002;7.788;2023-05-29T04:12:35;99066.25;;;11.15;100.00
5595;BME280;1003;48.002;7.788;2023-05-29T04:15:03;99062.75;;;11.25;100.00
5595;BME280;1003;48.002;7.788;2023-05-29T04:17:31;99058.38;;;11.36;100.00
5595;BME280;1003;48.002;7.788;2023-05-29T04:19:59;99052.34;;;11.46;100.00
5595;BME280;1003;48.002;7.788;2023-05-29T04:22:33;99050.53;;;11.54;100.00
5595;BME280;1003;48.002;7.788;2023-05-29T04:25:00;99041.97;;;11.65;100.00
5595;BME280;1003;48.002;7.788;2023-05-29T04:27:29;99030.03;;;11.76;100.00
5595;BME280;1003;48.002;7.788;2023-05-29T04:29:57;99017.28;;;11.87;100.00
5595;BME280;1003;48.002;7.788;2023-05-29T04:32:25;99014.34;;;12.09;100.00
5595;BME280;1003;48.002;7.788;2023-05-29T04:34:52;98999.78;;;12.24;100.00
5595;BME280;1003;48.002;7.788;2023-05-29T04:37:21;98982.72;;;12.37;100.00
5595;BME280;1003;48.002;7.788;2023-05-29T04:39:56;98951.16;;;12.59;100.00
5595;BME280;1003;48.002;7.788;2023-05-29T04:42:23;98925.34;;;12.86;100.00
5595;BME280;1003;48.002;7.788;2023-05-29T04:44:50;98872.88;;;13.33;100.00
5595;BME280;1003;48.002;7.788;2023-05-29T04:47:18;98776.88;;;14.22;100.00
5595;BME280;1003;48.002;7.788;2023-05-29T04:49:45;98629.63;;;15.12;100.00
5595;BME280;1003;48.002;7.788;2023-05-29T04:52:15;98458.28;;;16.15;100.00
5595;BME280;1003;48.002;7.788;2023-05-29T04:54:43;98315.09;;;16.93;100.00
5595;BME280;1003;48.002;7.788;2023-05-29T04:57:10;98234.69;;;16.93;100.00
5595;BME280;1003;48.002;7.788;2023-05-29T04:59:37;98225.50;;;17.40;100.00
5595;BME280;1003;48.002;7.788;2023-05-29T05:02:05;98224.63;;;18.02;100.00
5595;BME280;1003;48.002;7.788;2023-05-29T05:04:33;98262.81;;;17.71;100.00
5595;BME280;1003;48.002;7.788;2023-05-29T05:07:00;98283.41;;;18.28;100.00
5595;BME280;1003;48.002;7.788;2023-05-29T05:09:27;98319.31;;;18.53;100.00
5595;BME280;1003;48.002;7.788;2023-05-29T05:11:56;98380.69;;;18.79;100.00
5595;BME280;1003;48.002;7.788;2023-05-29T05:14:23;98414.84;;;18.75;100.00
5595;BME280;1003;48.002;7.788;2023-05-29T05:16:50;98435.56;;;18.69;100.00
5595;BME280;1003;48.002;7.788;2023-05-29T05:19:17;98459.19;;;18.55;100.00
5595;BME280;1003;48.002;7.788;2023-05-29T05:21:44;98485.69;;;18.98;100.00
5595;BME280;1003;48.002;7.788;2023-05-29T05:24:12;98522.75;;;19.34;100.00
5595;BME280;1003;48.002;7.788;2023-05-29T05:26:39;98535.63;;;19.17;100.00
5595;BME280;1003;48.002;7.788;2023-05-29T05:29:07;98572.69;;;19.22;100.00
5595;BME280;1003;48.002;7.788;2023-05-29T05:31:34;98597.78;;;19.44;100.00
5595;BME280;1003;48.002;7.788;2023-05-29T05:34:01;98613.25;;;19.41;100.00
5595;BME280;1003;48.002;7.788;2023-05-29T05:36:28;98611.75;;;19.37;100.00
5595;BME280;1003;48.002;7.788;2023-05-29T05:38:56;98620.53;;;19.47;100.00
5595;BME280;1003;48.002;7.788;2023-05-29T05:41:23;98657.66;;;19.21;100.00
5595;BME280;1003;48.002;7.788;2023-05-29T05:43:50;98647.53;;;19.20;100.00
5595;BME280;1003;48.002;7.788;2023-05-29T05:46:19;98651.22;;;18.82;100.00
5595;BME280;1003;48.002;7.788;2023-05-29T05:48:46;98639.81;;;19.05;100.00
5595;BME280;1003;48.002;7.788;2023-05-29T05:51:13;98628.88;;;19.35;100.00
5595;BME280;1003;48.002;7.788;2023-05-29T05:53:40;98637.16;;;19.70;100.00
5595;BME280;1003;48.002;7.788;2023-05-29T05:56:07;98653.81;;;20.06;100.00
5595;BME280;1003;48.002;7.788;2023-05-29T05:58:34;98676.25;;;20.15;100.00
5595;BME280;1003;48.002;7.788;2023-05-29T06:01:01;98693.88;;;20.34;100.00
5595;BME280;1003;48.002;7.788;2023-05-29T06:03:30;98696.41;;;20.64;100.00
5595;BME280;1003;48.002;7.788;2023-05-29T06:05:58;98718.66;;;20.62;100.00
5595;BME280;1003;48.002;7.788;2023-05-29T06:08:25;98721.66;;;20.54;100.00
5595;BME280;1003;48.002;7.788;2023-05-29T06:10:53;98744.59;;;20.40;100.00
5595;BME280;1003;48.002;7.788;2023-05-29T06:13:20;98742.19;;;20.07;100.00
5595;BME280;1003;48.002;7.788;2023-05-29T06:15:47;98746.44;;;19.92;100.00
5595;BME280;1003;48.002;7.788;2023-05-29T06:18:14;98751.22;;;19.66;100.00
5595;BME280;1003;48.002;7.788;2023-05-29T06:20:42;98741.69;;;19.70;100.00
5595;BME280;1003;48.002;7.788;2023-05-29T06:23:09;98757.63;;;19.89;100.00
5595;BME280;1003;48.002;7.788;2023-05-29T06:25:36;98764.53;;;20.03;100.00
5595;BME280;1003;48.002;7.788;2023-05-29T06:28:04;98765.13;;;20.23;100.00
5595;BME280;1003;48.002;7.788;2023-05-29T06:30:32;98779.53;;;19.78;100.00
5595;BME280;1003;48.002;7.788;2023-05-29T06:32:59;98776.22;;;19.91;100.00
5595;BME280;1003;48.002;7.788;2023-05-29T06:35:26;98786.16;;;19.96;100.00
5595;BME280;1003;48.002;7.788;2023-05-29T06:37:54;98786.00;;;19.83;100.00
5595;BME280;1003;48.002;7.788;2023-05-29T06:40:22;98789.41;;;20.30;100.00
5595;BME280;1003;48.002;7.788;2023-05-29T06:42:49;98798.44;;;19.74;100.00
5595;BME280;1003;48.002;7.788;2023-05-29T06:45:16;98805.59;;;19.67;100.00
5595;BME280;1003;48.002;7.788;2023-05-29T06:47:43;98791.84;;;19.85;100.00
5595;BME280;1003;48.002;7.788;2023-05-29T06:50:11;98794.63;;;20.42;100.00
5595;BME280;1003;48.002;7.788;2023-05-29T06:52:38;98801.88;;;20.04;100.00
5595;BME280;1003;48.002;7.788;2023-05-29T06:55:07;98799.34;;;20.04;100.00
5595;BME280;1003;48.002;7.788;2023-05-29T06:57:34;98804.56;;;20.17;100.00
5595;BME280;1003;48.002;7.788;2023-05-29T07:00:02;98806.91;;;19.90;100.00
5595;BME280;1003;48.002;7.788;2023-05-29T07:02:29;98799.47;;;20.01;100.00
5595;BME280;1003;48.002;7.788;2023-05-29T07:04:56;98805.00;;;20.09;100.00
5595;BME280;1003;48.002;7.788;2023-05-29T07:07:23;98800.44;;;20.46;100.00
5595;BME280;1003;48.002;7.788;2023-05-29T07:09:50;98816.31;;;20.95;100.00
5595;BME280;1003;48.002;7.788;2023-05-29T07:12:18;98827.19;;;20.99;100.00
5595;BME280;1003;48.002;7.788;2023-05-29T07:14:45;98828.53;;;21.19;100.00
5595;BME280;1003;48.002;7.788;2023-05-29T07:17:13;98838.50;;;20.65;100.00
5595;BME280;1003;48.002;7.788;2023-05-29T07:19:40;98834.66;;;20.88;100.00
5595;BME280;1003;48.002;7.788;2023-05-29T07:22:07;98832.66;;;21.07;100.00
5595;BME280;1003;48.002;7.788;2023-05-29T07:24:34;98847.63;;;21.28;100.00
5595;BME280;1003;48.002;7.788;2023-05-29T07:27:02;98851.94;;;21.41;100.00
5595;BME280;1003;48.002;7.788;2023-05-29T07:29:32;98851.88;;;22.13;100.00
5595;BME280;1003;48.002;7.788;2023-05-29T07:31:59;98867.38;;;22.10;100.00
5595;BME280;1003;48.002;7.788;2023-05-29T07:34:26;98875.06;;;22.10;100.00
5595;BME280;1003;48.002;7.788;2023-05-29T07:36:58;98893.69;;;22.26;100.00
5595;BME280;1003;48.002;7.788;2023-05-29T07:39:26;98882.50;;;22.41;100.00
5595;BME280;1003;48.002;7.788;2023-05-29T07:41:54;98889.84;;;22.60;100.00
5595;BME280;1003;48.002;7.788;2023-05-29T07:44:21;98901.22;;;22.69;100.00
5595;BME280;1003;48.002;7.788;2023-05-29T07:46:49;98905.16;;;22.20;100.00
5595;BME280;1003;48.002;7.788;2023-05-29T07:49:16;98898.25;;;22.35;100.00
5595;BME280;1003;48.002;7.788;2023-05-29T07:51:44;98905.44;;;22.43;100.00
5595;BME280;1003;48.002;7.788;2023-05-29T07:54:11;98905.06;;;22.49;100.00
5595;BME280;1003;48.002;7.788;2023-05-29T07:56:38;98898.69;;;22.42;100.00
5595;BME280;1003;48.002;7.788;2023-05-29T07:59:07;98902.28;;;22.79;100.00
5595;BME280;1003;48.002;7.788;2023-05-29T08:01:35;98899.91;;;23.28;100.00
5595;BME280;1003;48.002;7.788;2023-05-29T08:04:03;98924.81;;;23.39;100.00
5595;BME280;1003;48.002;7.788;2023-05-29T08:06:31;98925.13;;;23.60;100.00
5595;BME280;1003;48.002;7.788;2023-05-29T08:08:59;98922.66;;;23.46;100.00
5595;BME280;1003;48.002;7.788;2023-05-29T08:11:27;98930.59;;;23.68;100.00
5595;BME280;1003;48.002;7.788;2023-05-29T08:13:54;98942.69;;;24.28;100.00
5595;BME280;1003;48.002;7.788;2023-05-29T08:16:21;98947.63;;;23.82;100.00
5595;BME280;1003;48.002;7.788;2023-05-29T08:18:48;98941.50;;;24.08;100.00
5595;BME280;1003;48.002;7.788;2023-05-29T08:21:17;98943.59;;;23.78;100.00
5595;BME280;1003;48.002;7.788;2023-05-29T08:23:44;98933.66;;;23.48;100.00
5595;BME280;1003;48.002;7.788;2023-05-29T08:26:12;98928.31;;;23.51;100.00
5595;BME280;1003;48.002;7.788;2023-05-29T08:28:39;98931.09;;;23.86;100.00
5595;BME280;1003;48.002;7.788;2023-05-29T08:31:06;98936.00;;;23.51;100.00
5595;BME280;1003;48.002;7.788;2023-05-29T08:33:34;98936.34;;;23.46;100.00
5595;BME280;1003;48.002;7.788;2023-05-29T08:36:02;98942.97;;;23.11;100.00
5595;BME280;1003;48.002;7.788;2023-05-29T08:38:31;98944.59;;;22.99;100.00
5595;BME280;1003;48.002;7.788;2023-05-29T08:40:59;98936.69;;;22.89;100.00
5595;BME280;1003;48.002;7.788;2023-05-29T08:43:30;98935.03;;;22.61;100.00
5595;BME280;1003;48.002;7.788;2023-05-29T08:46:01;98926.81;;;23.36;100.00
5595;BME280;1003;48.002;7.788;2023-05-29T08:48:30;98937.94;;;23.09;100.00
5595;BME280;1003;48.002;7.788;2023-05-29T08:51:01;98931.50;;;22.76;100.00
5595;BME280;1003;48.002;7.788;2023-05-29T08:53:32;98926.56;;;22.86;100.00
5595;BME280;1003;48.002;7.788;2023-05-29T08:56:01;98918.66;;;23.16;100.00
5595;BME280;1003;48.002;7.788;2023-05-29T08:58:29;98923.03;;;22.89;100.00
5595;BME280;1003;48.002;7.788;2023-05-29T09:00:57;98918.06;;;22.73;100.00
5595;BME280;1003;48.002;7.788;2023-05-29T09:03:25;98913.53;;;23.29;100.00
5595;BME280;1003;48.002;7.788;2023-05-29T09:05:58;98922.88;;;23.04;100.00
5595;BME280;1003;48.002;7.788;2023-05-29T09:08:26;98924.50;;;22.93;100.00
5595;BME280;1003;48.002;7.788;2023-05-29T09:10:55;98911.00;;;22.76;100.00
5595;BME280;1003;48.002;7.788;2023-05-29T09:13:23;98914.13;;;22.94;100.00
5595;BME280;1003;48.002;7.788;2023-05-29T09:15:50;98913.72;;;23.13;100.00
5595;BME280;1003;48.002;7.788;2023-05-29T09:18:22;98914.88;;;23.22;100.00
5595;BME280;1003;48.002;7.788;2023-05-29T09:20:49;98917.97;;;23.14;100.00
5595;BME280;1003;48.002;7.788;2023-05-29T09:23:18;98917.09;;;22.88;100.00
5595;BME280;1003;48.002;7.788;2023-05-29T09:25:53;98920.53;;;23.14;100.00
5595;BME280;1003;48.002;7.788;2023-05-29T09:28:22;98922.38;;;23.25;100.00
5595;BME280;1003;48.002;7.788;2023-05-29T09:30:52;98913.03;;;23.24;100.00
5595;BME280;1003;48.002;7.788;2023-05-29T09:33:19;98900.91;;;23.13;100.00
5595;BME280;1003;48.002;7.788;2023-05-29T09:35:49;98899.28;;;23.50;100.00
5595;BME280;1003;48.002;7.788;2023-05-29T09:38:18;98893.19;;;23.90;100.00
5595;BME280;1003;48.002;7.788;2023-05-29T09:40:46;98910.16;;;23.79;100.00
5595;BME280;1003;48.002;7.788;2023-05-29T09:43:15;98906.09;;;24.01;100.00
5595;BME280;1003;48.002;7.788;2023-05-29T09:45:46;98903.97;;;23.95;100.00
5595;BME280;1003;48.002;7.788;2023-05-29T09:48:15;98912.38;;;23.97;100.00
5595;BME280;1003;48.002;7.788;2023-05-29T09:50:44;98907.50;;;24.05;100.00
5595;BME280;1003;48.002;7.788;2023-05-29T09:53:17;98910.19;;;24.16;100.00
5595;BME280;1003;48.002;7.788;2023-05-29T09:55:46;98909.50;;;24.01;100.00
5595;BME280;1003;48.002;7.788;2023-05-29T09:58:14;98897.91;;;23.96;100.00
5595;BME280;1003;48.002;7.788;2023-05-29T10:00:43;98907.41;;;23.57;100.00
5595;BME280;1003;48.002;7.788;2023-05-29T10:03:11;98903.69;;;23.61;100.00
5595;BME280;1003;48.002;7.788;2023-05-29T10:05:39;98897.84;;;23.72;100.00
5595;BME280;1003;48.002;7.788;2023-05-29T10:08:12;98905.34;;;23.75;100.00
5595;BME280;1003;48.002;7.788;2023-05-29T10:10:43;98900.31;;;23.73;100.00
5595;BME280;1003;48.002;7.788;2023-05-29T10:13:12;98904.34;;;24.01;100.00
5595;BME280;1003;48.002;7.788;2023-05-29T10:15:44;98901.84;;;23.76;100.00
5595;BME280;1003;48.002;7.788;2023-05-29T10:18:20;98897.63;;;23.62;100.00
5595;BME280;1003;48.002;7.788;2023-05-29T10:20:50;98883.03;;;23.88;100.00
5595;BME280;1003;48.002;7.788;2023-05-29T10:23:23;98896.78;;;23.87;100.00
5595;BME280;1003;48.002;7.788;2023-05-29T10:25:53;98899.94;;;24.03;100.00
5595;BME280;1003;48.002;7.788;2023-05-29T10:28:21;98900.16;;;23.88;100.00
5595;BME280;1003;48.002;7.788;2023-05-29T10:30:55;98887.97;;;23.78;100.00
5595;BME280;1003;48.002;7.788;2023-05-29T10:33:43;98881.19;;;23.90;100.00
5595;BME280;1003;48.002;7.788;2023-05-29T10:36:18;98885.41;;;24.15;100.00
5595;BME280;1003;48.002;7.788;2023-05-29T10:38:48;98890.38;;;24.05;100.00
5595;BME280;1003;48.002;7.788;2023-05-29T10:41:31;98882.50;;;23.96;100.00
5595;BME280;1003;48.002;7.788;2023-05-29T10:44:00;98873.63;;;24.00;100.00
5595;BME280;1003;48.002;7.788;2023-05-29T10:47:06;98871.72;;;24.27;100.00
5595;BME280;1003;48.002;7.788;2023-05-29T10:49:35;98878.56;;;24.27;100.00
5595;BME280;1003;48.002;7.788;2023-05-29T10:52:04;98877.13;;;24.35;100.00
5595;BME280;1003;48.002;7.788;2023-05-29T10:54:50;98865.41;;;24.31;100.00
5595;BME280;1003;48.002;7.788;2023-05-29T10:57:21;98862.00;;;24.44;100.00
5595;BME280;1003;48.002;7.788;2023-05-29T10:59:48;98865.19;;;24.58;100.00
5595;BME280;1003;48.002;7.788;2023-05-29T11:02:26;98875.81;;;24.54;100.00
5595;BME280;1003;48.002;7.788;2023-05-29T11:05:20;98870.53;;;24.31;99.16
5595;BME280;1003;48.002;7.788;2023-05-29T11:08:01;98872.66;;;24.50;100.00
5595;BME280;1003;48.002;7.788;2023-05-29T11:10:45;98862.50;;;24.49;100.00
5595;BME280;1003;48.002;7.788;2023-05-29T11:13:30;98862.53;;;24.60;100.00
5595;BME280;1003;48.002;7.788;2023-05-29T11:16:35;98862.38;;;24.50;100.00
5595;BME280;1003;48.002;7.788;2023-05-29T11:19:07;98863.38;;;24.48;100.00
5595;BME280;1003;48.002;7.788;2023-05-29T11:21:53;98856.81;;;24.68;100.00
5595;BME280;1003;48.002;7.788;2023-05-29T11:24:25;98865.53;;;24.54;100.00
5595;BME280;1003;48.002;7.788;2023-05-29T11:26:55;98849.06;;;24.56;100.00
5595;BME280;1003;48.002;7.788;2023-05-29T11:29:23;98857.78;;;24.78;100.00
5595;BME280;1003;48.002;7.788;2023-05-29T11:32:00;98848.09;;;24.81;100.00
5595;BME280;1003;48.002;7.788;2023-05-29T11:34:31;98851.09;;;24.75;96.24
5595;BME280;1003;48.002;7.788;2023-05-29T11:36:59;98856.22;;;24.64;94.96
5595;BME280;1003;48.002;7.788;2023-05-29T11:39:27;98859.50;;;24.66;96.17
5595;BME280;1003;48.002;7.788;2023-05-29T11:41:55;98853.25;;;24.81;96.97
5595;BME280;1003;48.002;7.788;2023-05-29T11:44:24;98841.78;;;24.97;99.06
5595;BME280;1003;48.002;7.788;2023-05-29T11:47:00;98848.81;;;24.95;96.17
5595;BME280;1003;48.002;7.788;2023-05-29T11:49:31;98839.13;;;24.98;97.35
5595;BME280;1003;48.002;7.788;2023-05-29T11:52:09;98836.22;;;25.03;97.21
5595;BME280;1003;48.002;7.788;2023-05-29T11:54:36;98850.91;;;25.01;94.02
5595;BME280;1003;48.002;7.788;2023-05-29T11:57:04;98845.72;;;25.13;96.06
5595;BME280;1003;48.002;7.788;2023-05-29T11:59:31;98839.28;;;25.08;96.91
5595;BME280;1003;48.002;7.788;2023-05-29T12:02:01;98827.81;;;25.12;94.32
5595;BME280;1003;48.002;7.788;2023-05-29T12:04:30;98821.50;;;25.27;97.49
5595;BME280;1003;48.002;7.788;2023-05-29T12:06:57;98827.13;;;25.44;98.61
5595;BME280;1003;48.002;7.788;2023-05-29T12:09:25;98813.16;;;25.69;100.00
5595;BME280;1003;48.002;7.788;2023-05-29T12:11:54;98833.75;;;25.69;94.82
5595;BME280;1003;48.002;7.788;2023-05-29T12:14:21;98835.06;;;25.52;95.21
5595;BME280;1003;48.002;7.788;2023-05-29T12:16:48;98835.06;;;25.63;96.12
5595;BME280;1003;48.002;7.788;2023-05-29T12:19:16;98840.53;;;25.70;96.12
5595;BME280;1003;48.002;7.788;2023-05-29T12:21:44;98840.75;;;25.66;94.67
5595;BME280;1003;48.002;7.788;2023-05-29T12:24:11;98831.41;;;25.65;93.40
5595;BME280;1003;48.002;7.788;2023-05-29T12:26:39;98827.53;;;25.71;92.42
5595;BME280;1003;48.002;7.788;2023-05-29T12:29:06;98823.69;;;25.77;93.29
5595;BME280;1003;48.002;7.788;2023-05-29T12:31:33;98831.53;;;25.86;93.72
5595;BME280;1003;48.002;7.788;2023-05-29T12:34:02;98829.66;;;25.88;89.86
5595;BME280;1003;48.002;7.788;2023-05-29T12:36:29;98834.06;;;25.98;93.16
5595;BME280;1003;48.002;7.788;2023-05-29T12:38:58;98833.56;;;26.04;92.37
5595;BME280;1003;48.002;7.788;2023-05-29T12:41:28;98846.22;;;26.07;87.01
5595;BME280;1003;48.002;7.788;2023-05-29T12:44:01;98836.38;;;26.12;85.75
5595;BME280;1003;48.002;7.788;2023-05-29T12:46:36;98830.53;;;26.31;88.53
5595;BME280;1003;48.002;7.788;2023-05-29T12:52:08;98828.03;;;26.73;90.37
5595;BME280;1003;48.002;7.788;2023-05-29T12:54:38;98827.06;;;26.94;89.35
5595;BME280;1003;48.002;7.788;2023-05-29T12:57:06;98835.75;;;26.73;83.79
5595;BME280;1003;48.002;7.788;2023-05-29T12:59:33;98841.00;;;26.82;81.65
5595;BME280;1003;48.002;7.788;2023-05-29T13:02:00;98839.28;;;26.51;80.63
5595;BME280;1003;48.002;7.788;2023-05-29T13:04:27;98830.88;;;26.49;84.32
5595;BME280;1003;48.002;7.788;2023-05-29T13:06:54;98835.69;;;26.63;84.77
5595;BME280;1003;48.002;7.788;2023-05-29T13:09:21;98827.72;;;26.66;85.29
5595;BME280;1003;48.002;7.788;2023-05-29T13:11:50;98830.53;;;26.63;82.72
5595;BME280;1003;48.002;7.788;2023-05-29T13:14:18;98814.31;;;26.72;86.76
5595;BME280;1003;48.002;7.788;2023-05-29T13:16:45;98808.78;;;26.77;87.68
5595;BME280;1003;48.002;7.788;2023-05-29T13:19:13;98823.81;;;26.51;85.01
5595;BME280;1003;48.002;7.788;2023-05-29T13:21:40;98816.09;;;26.51;87.08
5595;BME280;1003;48.002;7.788;2023-05-29T13:24:13;98819.78;;;26.79;80.62
5595;BME280;1003;48.002;7.788;2023-05-29T13:26:40;98825.69;;;27.11;79.16